Terminal Aerodrome Forecast
Issued by NWS

Home | Current Version | Previous Version | Text Only | Print | Product List | Glossary On
Versions: 1 2 3 4 5 6 7 8 9 10 11 12 13 14 15 16 17 18 19 20 21
000
FTUS41 KOKX 292333
TAFSWF
TAF
KSWF 292333Z 3000/3106 27005KT P6SM FEW030
     FM300100 VRB03KT P6SM SCT250
     FM300900 VRB03KT 5SM BR FEW020 SCT250
     FM301200 25005KT P6SM SCT035
     FM301500 24010KT P6SM SCT035 BKN050 PROB30 3018/3022 5SM -TSRA
      BKN035CB
     FM302300 27007KT P6SM SCT040 BKN100
      AMD NOT SKED=

USA.gov is the U.S. government's official web portal to all federal, state and local government web resources and services.